createdAt,value
2018-07-23T00:01:14.676Z,96885.20
2018-07-23T00:03:43.303Z,96886.92
2018-07-23T00:06:11.934Z,96888.25
2018-07-23T00:08:40.638Z,96887.80
2018-07-23T00:11:09.428Z,96895.00
2018-07-23T00:13:39.088Z,96893.63
2018-07-23T00:16:07.723Z,96891.91
2018-07-23T00:18:36.380Z,96893.63
2018-07-23T00:21:04.969Z,96890.64
2018-07-23T00:23:33.870Z,96888.55
2018-07-23T00:26:02.470Z,96891.09
2018-07-23T00:28:31.360Z,96889.02
2018-07-23T00:31:00.154Z,96889.86
2018-07-23T00:33:28.967Z,96891.61
2018-07-23T00:35:57.607Z,96885.61
2018-07-23T00:38:26.340Z,96884.68
2018-07-23T00:40:55.095Z,96892.26
2018-07-23T00:43:23.914Z,96890.55
2018-07-23T00:45:52.799Z,96891.36
2018-07-23T00:48:21.376Z,96891.81
2018-07-23T00:50:49.926Z,96893.95
2018-07-23T00:53:18.726Z,96882.52
2018-07-23T00:55:47.351Z,96882.09
2018-07-23T00:58:16.175Z,96883.36
2018-07-23T01:00:44.845Z,96884.19
2018-07-23T01:03:13.757Z,96884.58
2018-07-23T01:05:42.661Z,96884.03
2018-07-23T01:08:12.261Z,96885.30
2018-07-23T01:10:40.951Z,96885.70
2018-07-23T01:13:09.595Z,96880.97
2018-07-23T01:15:38.406Z,96880.91
2018-07-23T01:18:07.201Z,96877.00
2018-07-23T01:20:35.937Z,96876.16
2018-07-23T01:23:04.550Z,96884.67
2018-07-23T01:25:33.373Z,96880.36
2018-07-23T01:28:02.195Z,96882.52
2018-07-23T01:30:30.767Z,96882.91
2018-07-23T01:32:59.565Z,96881.64
2018-07-23T01:35:28.390Z,96886.38
2018-07-23T01:37:57.068Z,96881.64
2018-07-23T01:40:25.845Z,96887.59
2018-07-23T01:42:54.475Z,96886.38
2018-07-23T01:45:23.230Z,96884.67
2018-07-23T01:47:51.943Z,96886.42
2018-07-23T01:50:20.876Z,96887.64
2018-07-23T01:52:49.566Z,96887.64
2018-07-23T01:55:18.291Z,96890.58
2018-07-23T01:57:47.142Z,96891.03
2018-07-23T02:00:15.853Z,96889.31
2018-07-23T02:02:44.810Z,96882.45
2018-07-23T02:05:13.485Z,96882.86
2018-07-23T02:07:42.341Z,96886.67
2018-07-23T02:10:10.986Z,96887.89
2018-07-23T02:12:39.662Z,96894.69
2018-07-23T02:15:08.408Z,96887.98
2018-07-23T02:17:37.253Z,96892.14
2018-07-23T02:20:06.449Z,96893.02
2018-07-23T02:22:35.213Z,96891.41
2018-07-23T02:25:04.248Z,96896.06
2018-07-23T02:27:33.038Z,96904.22
2018-07-23T02:30:01.859Z,96897.48
2018-07-23T02:32:30.503Z,96900.45
2018-07-23T02:34:59.265Z,96898.86
2018-07-23T02:37:28.003Z,96903.94
2018-07-23T02:39:56.633Z,96909.95
2018-07-23T02:42:25.404Z,96906.14
2018-07-23T02:44:54.090Z,96911.17
2018-07-23T02:47:22.806Z,96905.69
2018-07-23T02:49:51.448Z,96903.05
2018-07-23T02:52:20.212Z,96907.98
2018-07-23T02:54:48.906Z,96904.45
2018-07-23T02:57:17.691Z,96904.02
2018-07-23T02:59:46.518Z,96901.31
2018-07-23T03:02:15.159Z,96904.49
2018-07-23T03:04:43.802Z,96901.95
2018-07-23T03:07:12.770Z,96903.70
2018-07-23T03:09:41.435Z,96915.48
2018-07-23T03:12:10.106Z,96917.97
2018-07-23T03:14:38.839Z,96911.52
2018-07-23T03:17:07.649Z,96906.32
2018-07-23T03:19:36.292Z,96905.77
2018-07-23T03:22:04.953Z,96905.77
2018-07-23T03:24:33.610Z,96909.05
2018-07-23T03:27:02.489Z,96906.61
2018-07-23T03:29:31.160Z,96911.27
2018-07-23T03:32:00.837Z,96912.64
2018-07-23T03:34:29.660Z,96907.62
2018-07-23T03:36:58.414Z,96912.06
2018-07-23T03:39:27.009Z,96921.53
2018-07-23T03:41:55.694Z,96919.49
2018-07-23T03:44:24.348Z,96919.58
2018-07-23T03:46:52.963Z,96921.95
2018-07-23T03:49:21.576Z,96922.23
2018-07-23T03:51:50.266Z,96926.62
2018-07-23T03:54:18.924Z,96922.03
2018-07-23T03:56:47.680Z,96928.38
2018-07-23T03:59:16.513Z,96928.49
2018-07-23T04:01:46.497Z,96931.07
2018-07-23T04:04:16.851Z,96934.83
2018-07-23T04:06:46.847Z,96939.86
2018-07-23T04:09:15.492Z,96938.77
2018-07-23T04:11:44.689Z,96960.16
2018-07-23T04:14:13.505Z,96968.78
2018-07-23T04:16:42.118Z,96979.22
2018-07-23T04:19:10.686Z,96986.03
2018-07-23T04:21:39.249Z,96981.76
2018-07-23T04:24:07.798Z,97001.00
2018-07-23T04:26:36.384Z,97028.50
2018-07-23T04:29:05.115Z,97036.41
2018-07-23T04:31:33.713Z,97034.46
2018-07-23T04:34:02.329Z,97060.86
2018-07-23T04:36:30.961Z,97079.03
2018-07-23T04:38:59.586Z,97084.02
2018-07-23T04:41:28.129Z,97074.22
2018-07-23T04:43:56.734Z,97076.44
2018-07-23T04:46:25.294Z,97080.20
2018-07-23T04:48:53.861Z,97082.50
2018-07-23T04:51:22.466Z,97070.23
2018-07-23T04:53:51.029Z,97060.56
2018-07-23T04:56:19.634Z,97068.88
2018-07-23T04:58:48.231Z,97080.59
2018-07-23T05:01:16.802Z,97073.44
2018-07-23T05:03:45.557Z,97069.56
2018-07-23T05:06:14.252Z,97067.64
2018-07-23T05:08:43.039Z,97053.94
2018-07-23T05:11:11.743Z,97052.17
2018-07-23T05:13:40.620Z,97050.50
2018-07-23T05:16:09.871Z,97059.95
2018-07-23T05:18:38.876Z,97067.61
2018-07-23T05:21:07.549Z,97087.95
2018-07-23T05:23:36.213Z,97092.14
2018-07-23T05:26:04.959Z,97106.55
2018-07-23T05:28:33.521Z,97124.52
2018-07-23T05:31:02.189Z,97119.07
2018-07-23T05:33:31.515Z,97134.91
2018-07-23T05:36:00.140Z,97130.94
2018-07-23T05:38:28.926Z,97129.61
2018-07-23T05:40:57.606Z,97121.29
2018-07-23T05:43:26.256Z,97110.85
2018-07-23T05:45:55.015Z,97096.55
2018-07-23T05:48:24.420Z,97094.33
2018-07-23T05:50:53.881Z,97089.42
2018-07-23T05:53:22.693Z,97077.31
2018-07-23T05:55:51.372Z,97069.34
2018-07-23T05:58:20.114Z,97075.83
2018-07-23T06:00:48.798Z,97080.02
2018-07-23T06:03:17.464Z,97099.91
2018-07-23T06:05:46.982Z,97112.80
2018-07-23T06:08:15.771Z,97112.23
2018-07-23T06:10:44.404Z,97120.55
2018-07-23T06:13:13.185Z,97110.77
2018-07-23T06:15:41.990Z,97109.73
2018-07-23T06:18:10.666Z,97130.31
2018-07-23T06:20:39.457Z,97154.53
2018-07-23T06:23:08.453Z,97192.98
2018-07-23T06:25:37.259Z,97219.30
2018-07-23T06:28:06.473Z,97252.09
2018-07-23T06:30:35.255Z,97268.59
2018-07-23T06:33:05.029Z,97298.49
2018-07-23T06:35:33.931Z,97306.22
2018-07-23T06:38:04.935Z,97288.14
2018-07-23T06:40:33.650Z,97313.39
2018-07-23T06:43:02.479Z,97323.55
2018-07-23T06:45:31.078Z,97332.58
2018-07-23T06:47:59.870Z,97360.70
2018-07-23T06:50:28.941Z,97395.47
2018-07-23T06:52:57.627Z,97409.34
2018-07-23T06:55:26.236Z,97424.92
2018-07-23T06:57:55.274Z,97443.83
2018-07-23T07:00:23.896Z,97471.36
2018-07-23T07:02:52.540Z,97479.77
2018-07-23T07:07:49.836Z,97492.17
2018-07-23T07:10:19.180Z,97491.98
2018-07-23T07:12:47.896Z,97498.30
2018-07-23T07:15:17.005Z,97497.15
2018-07-23T07:17:46.063Z,97487.54
2018-07-23T07:20:15.094Z,97488.31
2018-07-23T07:22:43.704Z,97489.38
2018-07-23T07:25:12.415Z,97496.59
2018-07-23T07:27:40.980Z,97496.04
2018-07-23T07:30:10.266Z,97498.98
2018-07-23T07:32:38.900Z,97499.20
2018-07-23T07:35:07.589Z,97497.66
2018-07-23T07:37:36.298Z,97498.44
2018-07-23T07:40:04.950Z,97484.94
2018-07-23T07:42:33.609Z,97500.77
2018-07-23T07:45:02.306Z,97501.09
2018-07-23T07:47:31.543Z,97504.69
2018-07-23T07:50:00.663Z,97505.61
2018-07-23T07:52:29.769Z,97510.16
2018-07-23T07:54:58.927Z,97506.52
2018-07-23T07:57:28.149Z,97497.62
2018-07-23T07:59:57.207Z,97501.20
2018-07-23T08:02:25.805Z,97507.47
2018-07-23T08:04:54.420Z,97498.36
2018-07-23T08:07:23.137Z,97502.72
2018-07-23T08:09:51.721Z,97501.80
2018-07-23T08:12:20.442Z,97495.92
2018-07-23T08:14:49.006Z,97502.72
2018-07-23T08:17:17.625Z,97504.41
2018-07-23T08:19:46.212Z,97510.06
2018-07-23T08:22:14.826Z,97506.70
2018-07-23T08:24:43.423Z,97509.91
2018-07-23T08:27:12.371Z,97509.16
2018-07-23T08:29:40.996Z,97515.20
2018-07-23T08:32:09.639Z,97517.40
2018-07-23T08:34:38.238Z,97518.23
2018-07-23T08:37:06.890Z,97519.45
2018-07-23T08:39:35.559Z,97518.86
2018-07-23T08:42:04.244Z,97536.05
2018-07-23T08:44:32.862Z,97523.06
2018-07-23T08:47:01.406Z,97522.60
2018-07-23T08:49:29.961Z,97512.90
2018-07-23T08:51:58.568Z,97523.83
2018-07-23T08:54:27.086Z,97524.20
2018-07-23T08:56:55.596Z,97520.34
2018-07-23T08:59:24.132Z,97522.36
2018-07-23T09:01:52.645Z,97523.57
2018-07-23T09:04:21.186Z,97515.83
2018-07-23T09:06:49.720Z,97519.23
2018-07-23T09:09:18.256Z,97522.73
2018-07-23T09:11:46.761Z,97523.83
2018-07-23T09:14:15.327Z,97523.13
2018-07-23T09:16:43.869Z,97521.94
2018-07-23T09:19:12.461Z,97521.84
2018-07-23T09:21:40.962Z,97520.27
2018-07-23T09:24:09.505Z,97524.14
2018-07-23T09:26:38.071Z,97518.03
2018-07-23T09:29:06.650Z,97514.03
2018-07-23T09:31:35.186Z,97513.02
2018-07-23T09:34:03.730Z,97516.80
2018-07-23T09:36:32.256Z,97514.27
2018-07-23T09:39:00.789Z,97510.33
2018-07-23T09:41:29.309Z,97514.45
2018-07-23T09:43:57.846Z,97520.30
2018-07-23T09:46:26.389Z,97511.41
2018-07-23T09:48:54.932Z,97519.39
2018-07-23T09:51:23.453Z,97511.83
2018-07-23T09:53:51.981Z,97522.16
2018-07-23T09:56:20.528Z,97519.39
2018-07-23T09:58:49.253Z,97520.65
2018-07-23T10:01:19.514Z,97522.19
2018-07-23T10:03:48.341Z,97521.83
2018-07-23T10:06:16.969Z,97521.94
2018-07-23T10:08:45.513Z,97527.62
2018-07-23T10:11:14.065Z,97521.07
2018-07-23T10:13:42.670Z,97519.54
2018-07-23T10:16:11.244Z,97518.62
2018-07-23T10:18:39.769Z,97517.23
2018-07-23T10:21:08.312Z,97519.37
2018-07-23T10:23:36.865Z,97518.38
2018-07-23T10:26:05.408Z,97509.67
2018-07-23T10:28:33.974Z,97516.36
2018-07-23T10:31:02.539Z,97510.92
2018-07-23T10:33:31.049Z,97512.64
2018-07-23T10:35:59.689Z,97499.94
2018-07-23T10:38:28.265Z,97499.66
2018-07-23T10:40:56.911Z,97499.23
2018-07-23T10:43:25.481Z,97496.89
2018-07-23T10:45:54.093Z,97497.59
2018-07-23T10:48:22.668Z,97493.20
2018-07-23T10:50:51.343Z,97492.67
2018-07-23T10:53:20.021Z,97488.83
2018-07-23T10:55:48.539Z,97486.53
2018-07-23T10:58:17.269Z,97486.00
2018-07-23T11:00:45.810Z,97489.77
2018-07-23T11:03:14.406Z,97490.87
2018-07-23T11:05:42.961Z,97486.80
2018-07-23T11:08:11.514Z,97486.94
2018-07-23T11:10:40.029Z,97483.00
2018-07-23T11:13:08.582Z,97476.52
2018-07-23T11:15:37.088Z,97476.23
2018-07-23T11:18:05.714Z,97480.05
2018-07-23T11:20:34.264Z,97479.20
2018-07-23T11:23:02.882Z,97476.35
2018-07-23T11:25:39.525Z,97477.77
2018-07-23T11:28:00.156Z,97471.86
2018-07-23T11:30:28.720Z,97473.53
2018-07-23T11:32:57.294Z,97468.80
2018-07-23T11:35:25.837Z,97474.27
2018-07-23T11:37:54.384Z,97473.48
2018-07-23T11:40:22.940Z,97474.57
2018-07-23T11:42:51.583Z,97477.64
2018-07-23T11:45:20.182Z,97474.22
2018-07-23T11:47:48.698Z,97470.82
2018-07-23T11:50:17.221Z,97475.14
2018-07-23T11:52:45.764Z,97473.67
2018-07-23T11:55:14.310Z,97469.56
2018-07-23T11:57:42.855Z,97474.66
2018-07-23T12:00:11.404Z,97471.08
2018-07-23T12:02:39.956Z,97478.37
2018-07-23T12:05:08.531Z,97477.39
2018-07-23T12:07:37.134Z,97479.92
2018-07-23T12:10:05.723Z,97477.07
2018-07-23T12:12:34.297Z,97471.30
2018-07-23T12:15:02.828Z,97476.70
2018-07-23T12:17:31.368Z,97470.37
2018-07-23T12:20:00.090Z,97466.03
2018-07-23T12:22:28.677Z,97469.09
2018-07-23T12:24:57.445Z,97464.37
2018-07-23T12:27:26.036Z,97457.91
2018-07-23T12:29:54.584Z,97461.78
2018-07-23T12:32:23.471Z,97458.73
2018-07-23T12:34:52.054Z,97454.44
2018-07-23T12:37:20.662Z,97459.06
2018-07-23T12:39:49.290Z,97449.00
2018-07-23T12:42:17.862Z,97444.59
2018-07-23T12:44:46.469Z,97443.91
2018-07-23T12:47:15.109Z,97442.58
2018-07-23T12:49:43.696Z,97445.89
2018-07-23T12:52:12.257Z,97442.52
2018-07-23T12:54:40.868Z,97441.64
2018-07-23T12:57:09.438Z,97440.86
2018-07-23T12:59:37.999Z,97446.10
2018-07-23T13:02:06.571Z,97447.45
2018-07-23T13:04:35.165Z,97444.90
2018-07-23T13:07:03.724Z,97445.77
2018-07-23T13:09:32.380Z,97434.50
2018-07-23T13:12:00.996Z,97438.77
2018-07-23T13:14:29.690Z,97440.16
2018-07-23T13:16:58.282Z,97436.30
2018-07-23T13:19:26.813Z,97441.03
2018-07-23T13:21:55.432Z,97441.02
2018-07-23T13:24:24.073Z,97443.61
2018-07-23T13:26:52.653Z,97444.05
2018-07-23T13:29:21.295Z,97442.69
2018-07-23T13:31:49.941Z,97428.86
2018-07-23T13:34:18.937Z,97427.94
2018-07-23T13:36:47.559Z,97424.84
2018-07-23T13:39:16.737Z,97422.23
2018-07-23T13:41:45.785Z,97423.61
2018-07-23T13:44:14.834Z,97418.78
2018-07-23T13:46:43.436Z,97418.40
2018-07-23T13:49:12.120Z,97414.62
2018-07-23T13:51:40.683Z,97419.67
2018-07-23T13:54:09.321Z,97416.25
2018-07-23T13:56:37.854Z,97410.20
2018-07-23T13:59:06.385Z,97409.41
2018-07-23T14:01:35.007Z,97405.91
2018-07-23T14:04:03.547Z,97399.08
2018-07-23T14:06:32.195Z,97398.27
2018-07-23T14:09:00.731Z,97403.08
2018-07-23T14:11:29.263Z,97395.34
2018-07-23T14:13:57.890Z,97393.20
2018-07-23T14:16:26.425Z,97388.48
2018-07-23T14:18:55.002Z,97381.16
2018-07-23T14:21:23.573Z,97390.66
2018-07-23T14:23:52.206Z,97394.97
2018-07-23T14:26:20.858Z,97393.24
2018-07-23T14:28:49.421Z,97387.61
2018-07-23T14:31:17.975Z,97388.03
2018-07-23T14:33:46.558Z,97385.86
2018-07-23T14:36:15.240Z,97384.97
2018-07-23T14:38:43.863Z,97391.06
2018-07-23T14:41:12.447Z,97394.93
2018-07-23T14:43:41.101Z,97403.54
2018-07-23T14:46:09.683Z,97389.73
2018-07-23T14:48:38.359Z,97387.16
2018-07-23T14:51:06.930Z,97392.33
2018-07-23T14:53:35.513Z,97383.68
2018-07-23T14:56:04.146Z,97381.55
2018-07-23T14:58:32.733Z,97386.70
2018-07-23T15:01:01.374Z,97387.11
2018-07-23T15:03:30.018Z,97381.09
2018-07-23T15:05:58.533Z,97380.69
2018-07-23T15:08:27.163Z,97381.10
2018-07-23T15:10:55.703Z,97379.80
2018-07-23T15:13:24.245Z,97383.26
2018-07-23T15:15:52.825Z,97376.79
2018-07-23T15:18:21.442Z,97380.27
2018-07-23T15:20:50.211Z,97376.77
2018-07-23T15:23:18.813Z,97371.57
2018-07-23T15:25:47.408Z,97377.55
2018-07-23T15:28:15.958Z,97369.39
2018-07-23T15:30:44.545Z,97372.41
2018-07-23T15:33:13.114Z,97363.33
2018-07-23T15:35:41.809Z,97365.08
2018-07-23T15:38:10.361Z,97368.48
2018-07-23T15:40:38.941Z,97375.73
2018-07-23T15:43:07.516Z,97369.56
2018-07-23T15:45:36.222Z,97374.70
2018-07-23T15:48:04.627Z,97380.27
2018-07-23T15:50:33.174Z,97373.34
2018-07-23T15:53:01.742Z,97377.39
2018-07-23T15:55:30.297Z,97395.55
2018-07-23T15:57:58.996Z,97402.91
2018-07-23T16:00:27.584Z,97417.28
2018-07-23T16:02:56.222Z,97410.83
2018-07-23T16:05:25.142Z,97403.53
2018-07-23T16:07:53.666Z,97393.81
2018-07-23T16:10:22.438Z,97392.72
2018-07-23T16:12:51.061Z,97398.21
2018-07-23T16:15:19.605Z,97397.20
2018-07-23T16:17:49.663Z,97402.10
2018-07-23T16:20:18.737Z,97386.87
2018-07-23T16:22:47.394Z,97388.51
2018-07-23T16:25:16.076Z,97380.16
2018-07-23T16:27:44.682Z,97384.55
2018-07-23T16:30:13.232Z,97399.88
2018-07-23T16:32:41.811Z,97399.77
2018-07-23T16:35:12.078Z,97385.63
2018-07-23T16:37:40.667Z,97002.56
2018-07-23T16:40:09.520Z,97523.31
2018-07-23T16:42:38.167Z,96814.64
